createdAt,value
2022-08-17T00:01:27.476Z,4.15
2022-08-17T00:03:54.836Z,3.53
2022-08-17T00:06:25.030Z,3.60
2022-08-17T00:08:56.941Z,3.90
2022-08-17T00:11:32.573Z,3.40
2022-08-17T00:14:05.930Z,3.45
2022-08-17T00:16:55.756Z,3.63
2022-08-17T00:19:24.293Z,4.30
2022-08-17T00:22:32.436Z,3.50
2022-08-17T00:24:39.759Z,3.90
2022-08-17T00:27:06.188Z,3.33
2022-08-17T00:29:32.602Z,3.42
2022-08-17T00:31:59.051Z,3.53
2022-08-17T00:34:25.546Z,3.80
2022-08-17T00:36:54.433Z,4.90
2022-08-17T00:39:21.255Z,4.13
2022-08-17T00:41:47.821Z,3.67
2022-08-17T00:44:15.505Z,4.15
2022-08-17T00:46:43.594Z,4.28
2022-08-17T00:51:40.902Z,3.65
2022-08-17T00:54:18.660Z,3.78
2022-08-17T00:56:51.213Z,4.13
2022-08-17T00:59:20.820Z,4.55
2022-08-17T01:01:49.313Z,3.85
2022-08-17T01:04:18.433Z,3.97
2022-08-17T01:06:49.398Z,4.13
2022-08-17T01:09:17.769Z,4.00
2022-08-17T01:11:46.140Z,4.05
2022-08-17T01:14:13.251Z,3.63
2022-08-17T01:16:39.873Z,4.00
2022-08-17T01:19:16.975Z,3.88
2022-08-17T01:21:50.224Z,3.97
2022-08-17T01:24:17.329Z,4.03
2022-08-17T01:26:45.551Z,4.30
2022-08-17T01:29:12.788Z,4.63
2022-08-17T01:31:45.446Z,3.72
2022-08-17T01:34:14.820Z,4.47
2022-08-17T01:36:44.605Z,4.05
2022-08-17T01:39:21.669Z,4.53
2022-08-17T01:41:51.186Z,4.10
2022-08-17T01:44:17.852Z,3.92
2022-08-17T01:46:44.330Z,3.90
2022-08-17T01:49:12.183Z,4.20
2022-08-17T01:51:39.670Z,5.18
2022-08-17T01:54:11.301Z,4.40
2022-08-17T01:56:41.269Z,4.63
2022-08-17T01:59:07.879Z,4.32
2022-08-17T02:01:35.422Z,4.63
2022-08-17T02:04:02.702Z,3.97
2022-08-17T02:06:44.797Z,4.30
2022-08-17T02:09:16.635Z,4.30
2022-08-17T02:11:44.968Z,3.85
2022-08-17T02:14:12.713Z,4.43
2022-08-17T02:16:41.133Z,4.45
2022-08-17T02:19:11.717Z,4.18
2022-08-17T02:21:40.142Z,4.65
2022-08-17T02:24:10.899Z,4.03
2022-08-17T02:26:37.563Z,4.28
2022-08-17T02:29:04.403Z,4.93
2022-08-17T02:31:31.361Z,4.43
2022-08-17T02:34:03.973Z,4.07
2022-08-17T02:36:34.114Z,5.05
2022-08-17T02:39:06.069Z,4.30
2022-08-17T02:41:33.070Z,4.90
2022-08-17T02:43:59.774Z,4.45
2022-08-17T02:46:26.536Z,4.85
2022-08-17T02:48:53.019Z,4.70
2022-08-17T02:51:19.623Z,4.85
2022-08-17T02:53:46.748Z,5.10
2022-08-17T02:56:13.357Z,4.38
2022-08-17T02:58:39.826Z,4.20
2022-08-17T03:01:08.722Z,4.45
2022-08-17T03:03:37.677Z,4.28
2022-08-17T03:06:04.574Z,4.72
2022-08-17T03:08:31.082Z,4.40
2022-08-17T03:10:57.559Z,4.32
2022-08-17T03:13:24.427Z,4.57
2022-08-17T03:15:51.448Z,4.57
2022-08-17T03:18:25.482Z,4.82
2022-08-17T03:23:23.834Z,4.47
2022-08-17T03:25:52.906Z,4.63
2022-08-17T03:28:21.076Z,4.28
2022-08-17T03:30:47.596Z,4.28
2022-08-17T03:33:14.614Z,5.00
2022-08-17T03:35:42.065Z,4.32
2022-08-17T03:38:11.121Z,4.85
2022-08-17T03:40:56.648Z,4.68
2022-08-17T03:43:25.234Z,5.70
2022-08-17T03:46:29.009Z,4.78
2022-08-17T03:49:15.533Z,4.47
2022-08-17T03:52:00.432Z,5.03
2022-08-17T03:54:45.257Z,5.15
2022-08-17T03:57:12.479Z,5.28
2022-08-17T03:59:40.877Z,5.30
2022-08-17T04:02:11.441Z,5.05
2022-08-17T04:04:38.792Z,4.60
2022-08-17T04:07:06.163Z,5.07
2022-08-17T04:09:32.666Z,5.80
2022-08-17T04:12:01.334Z,4.85
2022-08-17T04:14:36.713Z,4.60
2022-08-17T04:17:21.281Z,4.70
2022-08-17T04:19:47.778Z,4.43
2022-08-17T04:22:32.233Z,5.25
2022-08-17T04:25:07.524Z,5.28
2022-08-17T04:27:33.992Z,5.47
2022-08-17T04:30:01.432Z,5.95
2022-08-17T04:32:58.557Z,5.95
2022-08-17T04:35:18.984Z,5.15
2022-08-17T04:37:45.539Z,4.72
2022-08-17T04:40:31.002Z,5.03
2022-08-17T04:43:13.405Z,5.47
2022-08-17T04:45:51.325Z,5.25
2022-08-17T04:48:22.824Z,5.85
2022-08-17T04:50:55.008Z,5.70
2022-08-17T04:53:21.752Z,5.72
2022-08-17T04:55:51.241Z,5.25
2022-08-17T04:58:18.052Z,4.80
2022-08-17T05:00:44.465Z,5.70
2022-08-17T05:03:11.438Z,6.07
2022-08-17T05:05:43.084Z,4.88
2022-08-17T05:08:09.667Z,5.07
2022-08-17T05:10:38.194Z,5.55
2022-08-17T05:13:17.862Z,5.82
2022-08-17T05:15:47.937Z,6.00
2022-08-17T05:18:15.647Z,5.63
2022-08-17T05:20:43.270Z,5.68
2022-08-17T05:23:13.333Z,5.70
2022-08-17T05:25:47.415Z,5.50
2022-08-17T05:28:16.324Z,5.72
2022-08-17T05:30:44.346Z,8.38
2022-08-17T05:33:14.222Z,6.60
2022-08-17T05:35:44.450Z,7.45
2022-08-17T05:38:10.948Z,5.45
2022-08-17T05:40:38.319Z,5.18
2022-08-17T05:43:16.308Z,5.03
2022-08-17T05:45:55.340Z,6.10
2022-08-17T05:48:22.473Z,5.13
2022-08-17T05:51:15.054Z,5.40
2022-08-17T05:54:05.332Z,5.78
2022-08-17T05:56:47.694Z,5.93
2022-08-17T05:59:34.451Z,5.82
2022-08-17T06:04:56.127Z,5.38
2022-08-17T06:07:25.280Z,4.90
2022-08-17T06:10:17.242Z,4.70
2022-08-17T06:13:18.753Z,4.97
2022-08-17T06:15:57.337Z,5.15
2022-08-17T06:18:28.872Z,5.00
2022-08-17T06:21:02.655Z,5.25
2022-08-17T06:23:54.331Z,4.97
2022-08-17T06:26:37.374Z,4.68
2022-08-17T06:29:37.179Z,4.90
2022-08-17T06:32:08.420Z,4.32
2022-08-17T06:34:37.355Z,4.90
2022-08-17T06:37:13.110Z,4.40
2022-08-17T06:40:10.907Z,4.43
2022-08-17T06:43:02.630Z,4.32
2022-08-17T06:45:41.798Z,4.20
2022-08-17T06:48:32.635Z,3.90
2022-08-17T06:51:25.926Z,4.10
2022-08-17T06:54:19.517Z,4.22
2022-08-17T06:56:59.489Z,4.63
2022-08-17T06:59:36.245Z,4.10
2022-08-17T07:02:51.230Z,4.00
2022-08-17T07:05:32.085Z,4.40
2022-08-17T07:08:35.097Z,4.10
2022-08-17T07:11:14.405Z,3.53
2022-08-17T07:14:07.044Z,3.30
2022-08-17T07:16:41.067Z,3.58
2022-08-17T07:19:10.988Z,5.30
2022-08-17T07:21:52.561Z,3.28
2022-08-17T07:24:37.292Z,3.40
2022-08-17T07:27:07.032Z,3.90
2022-08-17T07:29:42.895Z,3.70
2022-08-17T07:32:11.233Z,3.28
2022-08-17T07:35:00.323Z,3.15
2022-08-17T07:37:26.965Z,3.50
2022-08-17T07:39:59.743Z,3.67
2022-08-17T07:42:45.086Z,3.35
2022-08-17T07:45:34.943Z,3.53
2022-08-17T07:48:20.112Z,3.42
2022-08-17T07:50:49.403Z,2.92
2022-08-17T07:53:23.204Z,3.72
2022-08-17T07:55:51.600Z,3.88
2022-08-17T07:58:22.267Z,3.40
2022-08-17T08:01:08.992Z,3.17
2022-08-17T08:03:42.561Z,2.80
2022-08-17T08:06:24.940Z,2.85
2022-08-17T08:08:55.238Z,3.20
2022-08-17T08:11:34.387Z,3.08
2022-08-17T08:14:31.100Z,2.35
2022-08-17T08:17:09.320Z,2.70
2022-08-17T08:19:36.580Z,2.30
2022-08-17T08:22:12.016Z,2.30
2022-08-17T08:25:03.139Z,2.10
2022-08-17T08:28:01.516Z,3.33
2022-08-17T08:30:29.850Z,2.15
2022-08-17T08:33:34.796Z,2.92
2022-08-17T08:37:14.274Z,1.92
2022-08-17T08:39:29.112Z,2.17
2022-08-17T08:42:24.413Z,2.60
2022-08-17T08:45:08.301Z,2.42
2022-08-17T08:47:50.755Z,2.22
2022-08-17T08:50:37.199Z,2.15
2022-08-17T08:53:14.806Z,2.08
2022-08-17T08:55:59.170Z,2.15
2022-08-17T08:58:43.818Z,1.80
2022-08-17T09:01:38.208Z,2.10
2022-08-17T09:04:40.744Z,2.00
2022-08-17T09:07:41.201Z,1.90
2022-08-17T09:10:10.620Z,2.30
2022-08-17T09:12:49.910Z,1.85
2022-08-17T09:15:45.075Z,2.30
2022-08-17T09:19:02.745Z,1.90
2022-08-17T09:21:33.642Z,2.45
2022-08-17T09:24:24.158Z,1.80
2022-08-17T09:27:05.023Z,2.13
2022-08-17T09:29:36.503Z,1.92
2022-08-17T09:32:21.870Z,1.67
2022-08-17T09:34:53.582Z,1.67
2022-08-17T09:37:29.435Z,1.60
2022-08-17T09:39:58.980Z,1.90
2022-08-17T09:42:59.469Z,2.10
2022-08-17T09:45:35.811Z,2.05
2022-08-17T09:48:10.736Z,1.75
2022-08-17T09:51:05.341Z,1.95
2022-08-17T09:53:32.159Z,2.72
2022-08-17T09:56:23.947Z,2.17
2022-08-17T09:59:16.878Z,2.10
2022-08-17T10:02:03.545Z,2.80
2022-08-17T10:04:47.235Z,2.28
2022-08-17T10:07:19.787Z,2.10
2022-08-17T10:09:46.158Z,2.20
2022-08-17T10:12:29.977Z,2.50
2022-08-17T10:15:37.313Z,2.33
2022-08-17T10:18:30.396Z,1.92
2022-08-17T10:21:34.266Z,2.30
2022-08-17T10:24:26.186Z,2.35
2022-08-17T10:26:56.801Z,2.00
2022-08-17T10:29:54.220Z,2.60
2022-08-17T10:32:38.380Z,2.20
2022-08-17T10:35:28.389Z,2.00
2022-08-17T10:38:16.796Z,2.20
2022-08-17T10:41:02.323Z,2.45
2022-08-17T10:43:44.696Z,2.20
2022-08-17T10:46:56.283Z,2.22
2022-08-17T10:49:26.542Z,2.42
2022-08-17T10:51:55.835Z,2.38
2022-08-17T10:54:25.356Z,2.20
2022-08-17T10:56:54.600Z,2.05
2022-08-17T10:59:36.396Z,2.28
2022-08-17T11:02:23.165Z,2.40
2022-08-17T11:05:15.680Z,2.20
2022-08-17T11:08:13.148Z,2.10
2022-08-17T11:10:49.938Z,2.10
2022-08-17T11:13:27.977Z,2.63
2022-08-17T11:16:17.491Z,2.00
2022-08-17T11:19:14.985Z,2.30
2022-08-17T11:21:51.986Z,2.80
2022-08-17T11:24:35.386Z,2.78
2022-08-17T11:27:25.370Z,2.15
2022-08-17T11:30:12.142Z,2.30
2022-08-17T11:32:52.908Z,2.38
2022-08-17T11:35:20.976Z,2.40
2022-08-17T11:38:02.966Z,2.13
2022-08-17T11:41:01.034Z,2.30
2022-08-17T11:43:58.696Z,2.22
2022-08-17T11:46:56.319Z,2.47
2022-08-17T11:50:15.931Z,2.30
2022-08-17T11:52:48.123Z,2.13
2022-08-17T11:55:38.194Z,2.20
2022-08-17T11:58:29.002Z,2.38
2022-08-17T12:01:00.854Z,2.45
2022-08-17T12:03:33.517Z,2.45
2022-08-17T12:06:30.751Z,2.17
2022-08-17T12:09:10.279Z,2.50
2022-08-17T12:12:11.042Z,2.08
2022-08-17T12:15:08.020Z,2.35
2022-08-17T12:17:39.259Z,2.60
2022-08-17T12:20:23.222Z,2.40
2022-08-17T12:23:13.880Z,2.20
2022-08-17T12:25:51.345Z,2.38
2022-08-17T12:28:43.822Z,2.42
2022-08-17T12:31:24.709Z,2.25
2022-08-17T12:33:52.184Z,2.13
2022-08-17T12:36:28.769Z,2.40
2022-08-17T12:39:14.248Z,2.42
2022-08-17T12:41:47.883Z,2.33
2022-08-17T12:44:16.680Z,2.33
2022-08-17T12:46:59.396Z,2.33
2022-08-17T12:49:29.815Z,2.40
2022-08-17T12:52:12.395Z,2.40
2022-08-17T12:54:41.904Z,2.22
2022-08-17T12:57:15.950Z,2.20
2022-08-17T12:59:46.598Z,2.28
2022-08-17T13:02:24.519Z,2.20
2022-08-17T13:04:51.092Z,2.15
2022-08-17T13:07:35.167Z,2.75
2022-08-17T13:10:01.930Z,2.10
2022-08-17T13:12:31.653Z,2.28
2022-08-17T13:14:58.804Z,2.33
2022-08-17T13:17:28.375Z,2.00
2022-08-17T13:19:55.012Z,2.45
2022-08-17T13:22:24.309Z,2.58
2022-08-17T13:24:54.589Z,2.10
2022-08-17T13:27:24.077Z,2.30
2022-08-17T13:29:55.718Z,2.25
2022-08-17T13:32:37.200Z,2.20
2022-08-17T13:35:39.186Z,2.63
2022-08-17T13:38:12.994Z,2.42
2022-08-17T13:40:50.808Z,2.50
2022-08-17T13:43:50.567Z,2.47
2022-08-17T13:46:29.367Z,2.20
2022-08-17T13:49:05.999Z,2.00
2022-08-17T13:51:36.193Z,2.25
2022-08-17T13:54:05.472Z,2.30
2022-08-17T13:56:46.664Z,2.63
2022-08-17T13:59:55.230Z,3.65
2022-08-17T14:02:26.091Z,2.30
2022-08-17T14:04:56.301Z,2.83
2022-08-17T14:10:17.845Z,2.22
2022-08-17T14:12:45.449Z,2.53
2022-08-17T14:15:15.519Z,2.55
2022-08-17T14:17:42.075Z,2.28
2022-08-17T14:20:11.731Z,2.42
2022-08-17T14:22:42.891Z,2.80
2022-08-17T14:25:13.066Z,3.13
2022-08-17T14:27:51.883Z,5.32
2022-08-17T14:30:21.738Z,3.53
2022-08-17T14:32:49.041Z,4.53
2022-08-17T14:35:16.240Z,2.55
2022-08-17T14:37:44.737Z,2.70
2022-08-17T14:40:13.464Z,2.65
2022-08-17T14:42:42.155Z,2.42
2022-08-17T14:45:30.324Z,2.47
2022-08-17T14:47:56.871Z,2.40
2022-08-17T14:50:24.332Z,2.15
2022-08-17T14:52:59.205Z,3.13
2022-08-17T14:55:29.749Z,2.45
2022-08-17T14:57:56.669Z,2.05
2022-08-17T15:00:23.373Z,2.70
2022-08-17T15:02:58.438Z,2.72
2022-08-17T15:05:30.535Z,2.72
2022-08-17T15:07:57.972Z,2.50
2022-08-17T15:12:53.233Z,3.53
2022-08-17T15:15:20.192Z,2.45
2022-08-17T15:17:46.739Z,2.42
2022-08-17T15:20:20.674Z,2.65
2022-08-17T15:22:55.166Z,2.60
2022-08-17T15:25:22.391Z,2.60
2022-08-17T15:27:49.202Z,2.80
2022-08-17T15:30:16.163Z,2.75
2022-08-17T15:32:51.387Z,3.10
2022-08-17T15:35:27.975Z,2.90
2022-08-17T15:37:57.463Z,2.95
2022-08-17T15:40:25.092Z,2.90
2022-08-17T15:42:51.597Z,2.78
2022-08-17T15:45:22.459Z,3.72
2022-08-17T15:47:53.263Z,2.63
2022-08-17T15:50:19.862Z,3.03
2022-08-17T15:52:47.497Z,2.90
2022-08-17T15:55:15.270Z,2.80
2022-08-17T15:57:42.142Z,3.05
2022-08-17T16:00:10.175Z,3.10
2022-08-17T16:03:44.760Z,2.72
2022-08-17T16:05:28.581Z,2.45
2022-08-17T16:07:58.584Z,2.35
2022-08-17T16:10:35.494Z,2.50
2022-08-17T16:13:03.609Z,2.25
2022-08-17T16:15:33.516Z,2.50
2022-08-17T16:17:59.960Z,2.80
2022-08-17T16:20:26.647Z,2.90
2022-08-17T16:22:54.163Z,2.88
2022-08-17T16:25:49.694Z,2.80
2022-08-17T16:28:12.237Z,2.85
2022-08-17T16:33:05.723Z,2.53
2022-08-17T16:35:32.288Z,2.40
2022-08-17T16:37:58.987Z,2.50
2022-08-17T16:40:27.692Z,2.83
2022-08-17T16:42:55.469Z,2.58
2022-08-17T16:45:28.652Z,2.90
2022-08-17T16:48:01.520Z,2.72
2022-08-17T16:50:28.149Z,2.63
2022-08-17T16:53:17.070Z,2.90
2022-08-17T16:55:48.121Z,4.30
2022-08-17T16:58:15.733Z,2.80
2022-08-17T17:03:19.090Z,2.97
2022-08-17T17:06:17.153Z,3.15
2022-08-17T17:08:59.055Z,2.50
2022-08-17T17:11:50.939Z,2.42
2022-08-17T17:14:28.334Z,2.72
2022-08-17T17:17:06.078Z,2.50
2022-08-17T17:20:00.527Z,2.72
2022-08-17T17:22:30.439Z,7.25
2022-08-17T17:25:07.031Z,4.00
2022-08-17T17:27:58.833Z,2.78
2022-08-17T17:30:44.571Z,4.25
2022-08-17T17:33:14.875Z,4.30
2022-08-17T17:35:54.933Z,9.13
2022-08-17T17:38:45.632Z,5.03
2022-08-17T17:41:25.841Z,3.05
2022-08-17T17:44:01.837Z,3.20
2022-08-17T17:46:37.946Z,3.30
2022-08-17T17:49:06.037Z,5.82
2022-08-17T17:52:07.873Z,4.00
2022-08-17T17:54:35.357Z,4.00
2022-08-17T17:57:11.531Z,7.63
2022-08-17T17:59:54.272Z,2.95
2022-08-17T18:02:52.061Z,3.20
2022-08-17T18:05:34.340Z,2.65
2022-08-17T18:08:11.059Z,2.95
2022-08-17T18:11:04.987Z,4.00
2022-08-17T18:13:53.538Z,3.70
2022-08-17T18:16:20.236Z,4.30
2022-08-17T18:18:48.121Z,3.60
2022-08-17T18:21:19.373Z,3.85
2022-08-17T18:23:54.706Z,7.82
2022-08-17T18:26:35.207Z,3.97
2022-08-17T18:32:27.902Z,3.28
2022-08-17T18:35:21.386Z,3.90
2022-08-17T18:37:51.366Z,3.03
2022-08-17T18:40:20.846Z,3.25
2022-08-17T18:42:50.269Z,3.63
2022-08-17T18:45:33.902Z,3.03
2022-08-17T18:48:00.509Z,3.63
2022-08-17T18:50:41.104Z,3.45
2022-08-17T18:53:30.192Z,3.10
2022-08-17T18:56:25.225Z,3.47
2022-08-17T18:59:00.401Z,3.20
2022-08-17T19:01:47.004Z,3.78
2022-08-17T19:04:34.011Z,3.13
2022-08-17T19:07:08.997Z,3.33
2022-08-17T19:09:41.988Z,3.13
2022-08-17T19:12:13.484Z,3.30
2022-08-17T19:14:40.377Z,3.42
2022-08-17T19:17:16.414Z,3.45
2022-08-17T19:19:56.311Z,3.63
2022-08-17T19:23:05.812Z,3.15
2022-08-17T19:25:40.802Z,3.55
2022-08-17T19:28:22.413Z,3.08
2022-08-17T19:30:54.824Z,4.13
2022-08-17T19:33:21.515Z,3.58
2022-08-17T19:35:54.038Z,3.28
2022-08-17T19:38:35.557Z,3.70
2022-08-17T19:41:14.401Z,3.45
2022-08-17T19:43:54.170Z,3.60
2022-08-17T19:47:00.909Z,3.30
2022-08-17T19:49:48.920Z,3.08
2022-08-17T19:52:21.425Z,3.80
2022-08-17T19:55:01.415Z,4.13
2022-08-17T19:58:03.099Z,3.58
2022-08-17T20:00:31.282Z,3.50
2022-08-17T20:03:06.650Z,3.38
2022-08-17T20:06:01.406Z,3.63
2022-08-17T20:08:27.105Z,3.30
2022-08-17T20:10:58.679Z,3.30
2022-08-17T20:13:34.054Z,3.47
2022-08-17T20:16:02.170Z,3.33
2022-08-17T20:18:37.884Z,3.90
2022-08-17T20:21:20.226Z,3.30
2022-08-17T20:24:11.333Z,3.20
2022-08-17T20:26:51.238Z,3.38
2022-08-17T20:29:37.283Z,3.45
2022-08-17T20:32:17.271Z,3.78
2022-08-17T20:34:47.152Z,3.70
2022-08-17T20:37:13.511Z,3.78
2022-08-17T20:39:43.973Z,3.47
2022-08-17T20:42:22.300Z,3.63
2022-08-17T20:45:02.218Z,3.92
2022-08-17T20:47:47.125Z,3.85
2022-08-17T20:50:56.321Z,3.50
2022-08-17T20:53:47.458Z,4.07
2022-08-17T20:56:47.251Z,4.40
2022-08-17T20:59:26.883Z,4.32
2022-08-17T21:02:06.638Z,3.88
2022-08-17T21:04:52.259Z,3.72
2022-08-17T21:07:43.666Z,3.65
2022-08-17T21:10:20.443Z,3.80
2022-08-17T21:13:04.800Z,3.80
2022-08-17T21:15:51.741Z,3.35
2022-08-17T21:19:00.309Z,3.67
2022-08-17T21:21:46.507Z,3.80
2022-08-17T21:24:43.786Z,3.55
2022-08-17T21:27:40.339Z,3.80
2022-08-17T21:30:10.235Z,4.10
2022-08-17T21:32:39.737Z,3.75
2022-08-17T21:35:11.179Z,3.95
2022-08-17T21:37:42.220Z,4.00
2022-08-17T21:40:19.503Z,3.90
2022-08-17T21:42:50.458Z,4.05
2022-08-17T21:45:25.906Z,4.03
2022-08-17T21:48:11.001Z,3.33
2022-08-17T21:50:38.746Z,4.22
2022-08-17T21:53:05.721Z,3.95
2022-08-17T21:55:35.906Z,4.38
2022-08-17T21:58:19.176Z,3.72
2022-08-17T22:00:45.649Z,4.00
2022-08-17T22:03:24.122Z,4.07
2022-08-17T22:05:51.396Z,4.13
2022-08-17T22:08:21.974Z,3.50
2022-08-17T22:10:50.886Z,4.00
2022-08-17T22:13:17.681Z,4.55
2022-08-17T22:15:48.054Z,4.40
2022-08-17T22:18:25.434Z,4.60
2022-08-17T22:20:55.613Z,4.20
2022-08-17T22:23:47.782Z,3.83
2022-08-17T22:26:16.516Z,4.15
2022-08-17T22:28:49.556Z,4.18
2022-08-17T22:31:19.888Z,4.30
2022-08-17T22:34:02.174Z,4.10
2022-08-17T22:36:33.673Z,3.88
2022-08-17T22:39:23.023Z,3.97
2022-08-17T22:41:55.721Z,4.60
2022-08-17T22:44:31.846Z,3.95
2022-08-17T22:47:28.349Z,3.90
2022-08-17T22:50:00.163Z,4.07
2022-08-17T22:53:01.187Z,4.55
2022-08-17T22:55:49.097Z,4.35
2022-08-17T22:58:37.943Z,4.43
2022-08-17T23:01:36.795Z,4.30
2022-08-17T23:04:06.526Z,4.43
2022-08-17T23:06:35.239Z,4.20
2022-08-17T23:09:04.055Z,4.72
2022-08-17T23:11:47.855Z,4.63
2022-08-17T23:14:18.344Z,4.95
2022-08-17T23:16:44.941Z,4.57
2022-08-17T23:19:13.554Z,4.82
2022-08-17T23:21:40.161Z,4.32
2022-08-17T23:24:08.858Z,3.95
2022-08-17T23:26:38.037Z,4.30
2022-08-17T23:29:06.416Z,4.85
2022-08-17T23:31:34.767Z,4.25
2022-08-17T23:34:03.016Z,4.20
2022-08-17T23:36:31.623Z,4.60
2022-08-17T23:38:58.412Z,4.55
2022-08-17T23:41:28.540Z,4.68
2022-08-17T23:43:55.371Z,4.55
2022-08-17T23:46:25.066Z,5.03
2022-08-17T23:48:54.083Z,5.05
2022-08-17T23:51:25.297Z,4.70
2022-08-17T23:53:56.000Z,4.82
2022-08-17T23:56:26.020Z,4.80
2022-08-17T23:58:55.200Z,4.68
